createdAt,value
2024-02-08T00:03:26.180Z,12.10
2024-02-08T00:07:08.237Z,12.80
2024-02-08T00:10:50.406Z,12.88
2024-02-08T00:14:32.443Z,12.30
2024-02-08T00:18:14.601Z,13.30
2024-02-08T00:21:57.762Z,13.32
2024-02-08T00:26:19.882Z,13.07
2024-02-08T00:30:02.843Z,12.95
2024-02-08T00:33:45.147Z,12.95
2024-02-08T00:37:27.256Z,13.13
2024-02-08T00:41:09.285Z,13.50
2024-02-08T00:44:51.424Z,12.65
2024-02-08T00:48:33.517Z,12.77
2024-02-08T00:52:15.565Z,12.75
2024-02-08T00:55:57.608Z,12.80
2024-02-08T00:59:39.931Z,11.52
2024-02-08T01:03:26.225Z,11.45
2024-02-08T01:07:08.489Z,11.32
2024-02-08T01:10:50.785Z,11.55
2024-02-08T01:14:32.837Z,10.85
2024-02-08T01:18:14.946Z,10.73
2024-02-08T01:21:57.896Z,11.00
2024-02-08T01:25:43.074Z,10.38
2024-02-08T01:29:26.624Z,10.23
2024-02-08T01:33:12.487Z,9.60
2024-02-08T01:36:55.054Z,9.93
2024-02-08T01:40:38.249Z,9.88
2024-02-08T01:44:22.920Z,10.18
2024-02-08T01:48:06.982Z,9.93
2024-02-08T01:51:51.478Z,10.18
2024-02-08T01:55:35.523Z,9.50
2024-02-08T01:59:21.220Z,10.10
2024-02-08T02:03:05.101Z,9.25
2024-02-08T02:06:47.663Z,9.50
2024-02-08T02:10:32.419Z,9.07
2024-02-08T02:14:18.392Z,8.52
2024-02-08T02:18:05.196Z,8.73
2024-02-08T02:25:30.700Z,7.80
2024-02-08T02:29:12.759Z,8.60
2024-02-08T02:32:57.427Z,8.38
2024-02-08T02:36:45.542Z,8.02
2024-02-08T02:40:27.644Z,7.50
2024-02-08T02:44:09.837Z,7.28
2024-02-08T02:47:55.019Z,7.78
2024-02-08T02:51:37.524Z,7.40
2024-02-08T02:55:20.239Z,6.30
2024-02-08T02:59:04.608Z,6.60
2024-02-08T03:02:47.475Z,6.05
2024-02-08T03:06:29.395Z,6.03
2024-02-08T03:10:12.933Z,5.65
2024-02-08T03:13:56.779Z,5.32
2024-02-08T03:17:39.997Z,5.07
2024-02-08T03:21:23.815Z,5.93
2024-02-08T03:25:06.524Z,5.45
2024-02-08T03:28:50.158Z,4.75
2024-02-08T03:32:32.755Z,4.70
2024-02-08T03:36:14.732Z,4.20
2024-02-08T03:39:56.826Z,4.53
2024-02-08T03:43:39.833Z,4.20
2024-02-08T03:47:22.470Z,4.43
2024-02-08T03:51:04.515Z,4.45
2024-02-08T03:54:47.262Z,4.32
2024-02-08T03:58:31.207Z,3.72
2024-02-08T04:02:13.634Z,3.67
2024-02-08T04:05:55.731Z,3.40
2024-02-08T04:09:38.039Z,3.22
2024-02-08T04:13:41.139Z,2.95
2024-02-08T04:17:41.877Z,2.47
2024-02-08T04:21:42.645Z,3.13
2024-02-08T04:25:43.231Z,2.70
2024-02-08T04:29:43.879Z,2.50
2024-02-08T04:33:44.517Z,2.30
2024-02-08T04:37:45.269Z,2.10
2024-02-08T04:41:48.435Z,2.20
2024-02-08T04:45:48.901Z,2.00
2024-02-08T04:49:49.543Z,1.70
2024-02-08T04:53:57.968Z,1.80
2024-02-08T04:57:40.690Z,1.73
2024-02-08T05:01:22.770Z,2.00
2024-02-08T05:05:08.657Z,1.48
2024-02-08T05:08:52.260Z,1.60
2024-02-08T05:12:34.298Z,1.20
2024-02-08T05:16:16.484Z,1.10
2024-02-08T05:19:58.719Z,1.10
2024-02-08T05:23:42.205Z,1.10
2024-02-08T05:27:24.378Z,1.00
2024-02-08T05:31:06.866Z,1.10
2024-02-08T05:34:49.049Z,1.00
2024-02-08T05:38:38.857Z,1.17
2024-02-08T05:42:22.917Z,1.10
2024-02-08T05:46:05.065Z,1.13
2024-02-08T05:49:51.179Z,1.20
2024-02-08T05:53:33.790Z,1.15
2024-02-08T05:57:15.914Z,1.20
2024-02-08T06:01:02.937Z,1.40
2024-02-08T06:04:53.005Z,1.60
2024-02-08T06:08:41.192Z,1.63
2024-02-08T06:12:42.016Z,1.60
2024-02-08T06:16:46.863Z,1.50
2024-02-08T06:20:37.262Z,1.50
2024-02-08T06:24:25.364Z,1.40
2024-02-08T06:28:07.564Z,1.48
2024-02-08T06:31:52.278Z,1.20
2024-02-08T06:35:37.425Z,1.30
2024-02-08T06:39:29.317Z,1.70
2024-02-08T06:43:26.662Z,1.30
2024-02-08T06:47:27.612Z,1.50
2024-02-08T06:51:28.617Z,1.55
2024-02-08T06:55:29.386Z,1.60
2024-02-08T06:59:31.050Z,1.65
2024-02-08T07:03:31.801Z,1.60
2024-02-08T07:07:32.298Z,1.50
2024-02-08T07:11:35.940Z,1.90
2024-02-08T07:15:36.866Z,2.05
2024-02-08T07:19:37.401Z,1.95
2024-02-08T07:23:38.237Z,2.20
2024-02-08T07:27:38.602Z,2.40
2024-02-08T07:31:39.316Z,2.47
2024-02-08T07:35:40.048Z,2.92
2024-02-08T07:39:37.334Z,2.78
2024-02-08T07:43:21.421Z,2.45
2024-02-08T07:47:05.309Z,2.78
2024-02-08T07:50:47.441Z,2.45
2024-02-08T07:54:31.570Z,2.63
2024-02-08T07:58:19.413Z,3.00
2024-02-08T08:02:01.718Z,2.80
2024-02-08T08:05:46.293Z,2.53
2024-02-08T08:09:28.695Z,2.25
2024-02-08T08:13:10.840Z,2.15
2024-02-08T08:17:19.258Z,2.10
2024-02-08T08:21:01.282Z,1.70
2024-02-08T08:25:01.782Z,1.30
2024-02-08T08:28:53.848Z,1.75
2024-02-08T08:32:42.004Z,1.77
2024-02-08T08:36:30.238Z,1.85
2024-02-08T08:40:22.737Z,2.20
2024-02-08T08:44:08.021Z,1.80
2024-02-08T08:47:53.835Z,1.77
2024-02-08T08:51:35.993Z,2.70
2024-02-08T08:55:22.130Z,1.60
2024-02-08T08:59:06.085Z,1.40
2024-02-08T09:02:52.101Z,1.30
2024-02-08T09:06:34.441Z,1.20
2024-02-08T09:10:16.819Z,0.93
2024-02-08T09:14:11.335Z,0.88
2024-02-08T09:17:54.478Z,1.08
2024-02-08T09:21:37.701Z,1.00
2024-02-08T09:25:31.787Z,1.10
2024-02-08T09:29:31.546Z,1.02
2024-02-08T09:33:15.581Z,0.98
2024-02-08T09:36:58.427Z,0.93
2024-02-08T09:40:47.237Z,1.20
2024-02-08T09:44:30.169Z,1.10
2024-02-08T09:48:26.646Z,0.90
2024-02-08T09:52:20.725Z,1.25
2024-02-08T09:56:16.651Z,1.42
2024-02-08T10:00:01.850Z,1.30
2024-02-08T10:03:47.756Z,1.17
2024-02-08T10:07:36.087Z,1.48
2024-02-08T10:11:25.677Z,1.40
2024-02-08T10:15:15.450Z,1.10
2024-02-08T10:19:05.583Z,1.40
2024-02-08T10:23:10.228Z,0.80
2024-02-08T10:26:55.338Z,0.82
2024-02-08T10:30:45.855Z,0.50
2024-02-08T10:34:35.356Z,0.60
2024-02-08T10:38:31.960Z,0.60
2024-02-08T10:42:15.551Z,0.60
2024-02-08T10:46:18.686Z,0.65
2024-02-08T10:50:03.815Z,0.90
2024-02-08T10:53:50.014Z,0.50
2024-02-08T10:57:41.243Z,0.52
2024-02-08T11:01:34.975Z,0.50
2024-02-08T11:05:43.015Z,0.60
2024-02-08T11:09:28.938Z,0.82
2024-02-08T11:13:16.786Z,0.80
2024-02-08T11:17:05.944Z,0.50
2024-02-08T11:20:48.345Z,0.70
2024-02-08T11:24:31.297Z,0.70
2024-02-08T11:28:26.365Z,0.40
2024-02-08T11:32:19.283Z,0.60
2024-02-08T11:36:15.216Z,0.50
2024-02-08T11:40:02.751Z,0.40
2024-02-08T11:43:52.642Z,0.60
2024-02-08T11:47:39.442Z,0.63
2024-02-08T11:51:23.657Z,0.60
2024-02-08T11:55:10.086Z,0.60
2024-02-08T12:02:40.257Z,0.35
2024-02-08T12:06:23.230Z,0.50
2024-02-08T12:10:11.008Z,0.38
2024-02-08T12:14:04.578Z,0.20
2024-02-08T12:18:10.012Z,0.40
2024-02-08T12:21:58.781Z,0.60
2024-02-08T12:25:44.414Z,0.20
2024-02-08T12:29:27.541Z,0.30
2024-02-08T12:33:11.850Z,0.40
2024-02-08T12:36:55.203Z,0.32
2024-02-08T12:40:37.596Z,0.40
2024-02-08T12:44:23.074Z,0.40
2024-02-08T12:48:09.518Z,1.10
2024-02-08T12:51:58.061Z,0.98
2024-02-08T12:55:41.874Z,0.90
2024-02-08T12:59:24.826Z,0.77
2024-02-08T13:03:07.739Z,1.13
2024-02-08T13:06:51.827Z,1.30
2024-02-08T13:10:37.002Z,1.42
2024-02-08T13:14:21.571Z,1.30
2024-02-08T13:18:04.011Z,0.77
2024-02-08T13:21:46.030Z,0.90
2024-02-08T13:25:30.636Z,0.93
2024-02-08T13:29:13.893Z,0.60
2024-02-08T13:32:57.029Z,0.80
2024-02-08T13:36:45.141Z,0.88
2024-02-08T13:40:27.818Z,0.80
2024-02-08T13:44:10.142Z,1.30
2024-02-08T13:47:56.026Z,1.15
2024-02-08T13:51:38.756Z,1.85
2024-02-08T13:55:21.686Z,1.70
2024-02-08T13:59:03.793Z,1.70
2024-02-08T14:02:50.644Z,1.55
2024-02-08T14:06:32.902Z,1.95
2024-02-08T14:10:18.793Z,1.98
2024-02-08T14:14:11.422Z,2.00
2024-02-08T14:17:56.180Z,2.03
2024-02-08T14:21:42.431Z,2.03
2024-02-08T14:25:38.521Z,2.33
2024-02-08T14:29:21.596Z,1.97
2024-02-08T14:33:03.707Z,1.73
2024-02-08T14:36:50.378Z,1.85
2024-02-08T14:40:35.314Z,4.50
2024-02-08T14:44:19.425Z,3.00
2024-02-08T14:48:01.820Z,3.30
2024-02-08T14:51:50.190Z,3.38
2024-02-08T14:55:36.661Z,2.38
2024-02-08T14:59:19.123Z,3.45
2024-02-08T15:03:09.913Z,2.22
2024-02-08T15:07:05.782Z,2.67
2024-02-08T15:10:48.114Z,2.47
2024-02-08T15:14:36.911Z,4.07
2024-02-08T15:18:31.470Z,1.75
2024-02-08T15:22:40.926Z,1.52
2024-02-08T15:26:26.769Z,1.95
2024-02-08T15:30:15.461Z,1.48
2024-02-08T15:34:09.725Z,0.98
2024-02-08T15:38:12.094Z,0.80
2024-02-08T15:41:56.823Z,0.45
2024-02-08T15:45:42.553Z,0.50
2024-02-08T15:49:30.404Z,0.40
2024-02-08T15:53:21.354Z,0.60
2024-02-08T15:57:09.096Z,0.70
2024-02-08T16:01:23.277Z,1.25
2024-02-08T16:05:17.740Z,1.48
2024-02-08T16:09:01.333Z,0.80
2024-02-08T16:12:48.452Z,1.55
2024-02-08T16:16:34.223Z,1.42
2024-02-08T16:20:19.363Z,0.90
2024-02-08T16:24:14.827Z,0.90
2024-02-08T16:27:57.983Z,0.80
2024-02-08T16:31:44.305Z,1.55
2024-02-08T16:35:49.172Z,1.20
2024-02-08T16:39:34.808Z,0.90
2024-02-08T16:43:21.206Z,1.63
2024-02-08T16:47:07.476Z,0.57
2024-02-08T16:50:51.245Z,1.27
2024-02-08T16:54:36.355Z,0.60
2024-02-08T16:58:19.164Z,0.80
2024-02-08T17:02:13.640Z,1.40
2024-02-08T17:05:58.119Z,0.90
2024-02-08T17:09:47.343Z,0.90
2024-02-08T17:13:32.604Z,0.98
2024-02-08T17:17:26.117Z,1.13
2024-02-08T17:21:33.862Z,0.88
2024-02-08T17:25:18.689Z,0.82
2024-02-08T17:29:20.885Z,1.00
2024-02-08T17:33:03.903Z,0.70
2024-02-08T17:36:55.383Z,0.50
2024-02-08T17:40:39.551Z,0.98
2024-02-08T17:44:21.552Z,0.60
2024-02-08T17:48:08.024Z,0.70
2024-02-08T17:51:51.212Z,1.00
2024-02-08T17:55:37.931Z,0.68
2024-02-08T17:59:20.108Z,0.90
2024-02-08T18:03:02.401Z,0.93
2024-02-08T18:06:46.075Z,1.00
2024-02-08T18:10:39.081Z,1.00
2024-02-08T18:14:23.742Z,1.02
2024-02-08T18:18:08.757Z,1.13
2024-02-08T18:21:54.744Z,1.10
2024-02-08T18:25:38.939Z,1.87
2024-02-08T18:29:23.836Z,1.10
2024-02-08T18:33:06.609Z,1.13
2024-02-08T18:36:48.959Z,1.10
2024-02-08T18:40:37.870Z,1.65
2024-02-08T18:44:20.531Z,1.90
2024-02-08T18:48:05.119Z,2.25
2024-02-08T18:51:48.623Z,2.00
2024-02-08T18:55:53.194Z,1.90
2024-02-08T18:59:36.903Z,2.00
2024-02-08T19:03:21.948Z,1.73
2024-02-08T19:07:06.700Z,2.58
2024-02-08T19:10:54.000Z,1.48
2024-02-08T19:14:37.954Z,1.25
2024-02-08T19:18:20.101Z,1.00
2024-02-08T19:22:05.824Z,0.88
2024-02-08T19:29:31.313Z,0.90
2024-02-08T19:33:14.922Z,0.68
2024-02-08T19:37:00.196Z,1.08
2024-02-08T19:40:43.696Z,0.60
2024-02-08T19:44:26.874Z,0.70
2024-02-08T19:48:19.346Z,0.70
2024-02-08T19:52:01.657Z,0.60
2024-02-08T19:55:48.228Z,0.60
2024-02-08T20:03:21.892Z,0.40
2024-02-08T20:07:12.469Z,0.60
2024-02-08T20:10:55.779Z,0.38
2024-02-08T20:14:39.899Z,0.47
2024-02-08T20:18:22.560Z,0.32
2024-02-08T20:22:04.938Z,0.30
2024-02-08T20:25:49.998Z,0.60
2024-02-08T20:29:33.522Z,0.77
2024-02-08T20:33:15.896Z,0.40
2024-02-08T20:36:59.911Z,0.43
2024-02-08T20:40:47.526Z,0.50
2024-02-08T20:44:32.719Z,0.70
2024-02-08T20:48:16.164Z,0.90
2024-02-08T20:52:00.570Z,1.00
2024-02-08T20:55:44.664Z,1.20
2024-02-08T20:59:29.249Z,1.13
2024-02-08T21:03:15.651Z,0.85
2024-02-08T21:06:58.019Z,0.93
2024-02-08T21:10:48.130Z,1.50
2024-02-08T21:14:33.547Z,1.00
2024-02-08T21:18:19.962Z,0.70
2024-02-08T21:22:02.093Z,0.70
2024-02-08T21:25:44.408Z,1.25
2024-02-08T21:29:29.501Z,0.90
2024-02-08T21:33:15.125Z,0.80
2024-02-08T21:36:57.307Z,1.08
2024-02-08T21:40:43.764Z,1.25
2024-02-08T21:44:26.983Z,1.48
2024-02-08T21:48:16.183Z,2.05
2024-02-08T21:51:58.564Z,2.58
2024-02-08T21:55:43.806Z,2.72
2024-02-08T21:59:25.840Z,2.13
2024-02-08T22:03:10.463Z,2.47
2024-02-08T22:06:52.488Z,1.88
2024-02-08T22:10:37.363Z,1.90
2024-02-08T22:14:20.908Z,2.33
2024-02-08T22:18:03.099Z,2.20
2024-02-08T22:21:46.285Z,1.50
2024-02-08T22:25:28.500Z,1.80
2024-02-08T22:29:10.672Z,1.98
2024-02-08T22:32:53.786Z,1.98
2024-02-08T22:36:39.220Z,2.10
2024-02-08T22:40:21.345Z,2.00
2024-02-08T22:44:03.326Z,2.30
2024-02-08T22:47:48.798Z,2.33
2024-02-08T22:51:35.087Z,1.95
2024-02-08T22:55:18.540Z,2.58
2024-02-08T22:59:01.481Z,2.88
2024-02-08T23:02:43.412Z,2.70
2024-02-08T23:06:31.580Z,3.30
2024-02-08T23:10:19.445Z,2.42
2024-02-08T23:14:04.699Z,2.60
2024-02-08T23:17:55.945Z,2.03
2024-02-08T23:21:41.003Z,3.15
2024-02-08T23:25:23.021Z,2.70
2024-02-08T23:29:05.442Z,3.20
2024-02-08T23:32:55.600Z,2.47
2024-02-08T23:36:40.114Z,2.67
2024-02-08T23:40:22.695Z,2.33
2024-02-08T23:44:04.859Z,2.40
2024-02-08T23:47:47.356Z,2.45
2024-02-08T23:51:30.190Z,2.08
2024-02-08T23:55:14.946Z,2.00
2024-02-08T23:58:56.982Z,2.13
